createdAt,value
2022-11-29T00:00:21.156Z,54.10
2022-11-29T00:01:21.155Z,53.20
2022-11-29T00:02:26.693Z,63.40
2022-11-29T00:03:21.234Z,59.90
2022-11-29T00:04:21.099Z,61.70
2022-11-29T00:05:23.147Z,64.30
2022-11-29T00:06:21.082Z,62.90
2022-11-29T00:07:21.134Z,72.00
2022-11-29T00:08:21.050Z,64.80
2022-11-29T00:09:21.056Z,52.00
2022-11-29T00:10:21.024Z,64.00
2022-11-29T03:55:14.871Z,153.30
2022-11-29T03:56:14.361Z,146.30
2022-11-29T03:57:14.239Z,151.70
2022-11-29T03:58:14.233Z,168.30
2022-11-29T03:59:14.224Z,144.70
2022-11-29T04:18:35.134Z,168.60
2022-11-29T04:19:34.609Z,160.50
2022-11-29T05:38:18.279Z,129.90
2022-11-29T05:47:10.220Z,133.00
2022-11-29T05:48:08.923Z,130.40
2022-11-29T06:22:34.433Z,127.30
2022-11-29T06:23:35.413Z,118.60
2022-11-29T06:24:35.404Z,117.10
2022-11-29T06:25:35.392Z,112.40
2022-11-29T06:26:35.382Z,116.00
2022-11-29T06:27:35.361Z,128.00
2022-11-29T06:28:35.473Z,117.60
2022-11-29T06:29:35.475Z,126.20
2022-11-29T06:30:35.327Z,115.90
2022-11-29T06:31:35.362Z,106.90
2022-11-29T06:32:35.294Z,111.20
2022-11-29T06:33:35.286Z,115.70
2022-11-29T06:34:35.276Z,124.80
2022-11-29T06:35:35.297Z,111.80
2022-11-29T06:36:35.262Z,102.10
2022-11-29T06:37:35.234Z,108.30
2022-11-29T06:38:35.218Z,103.70
2022-11-29T06:39:35.209Z,105.60
2022-11-29T06:40:35.239Z,103.40
2022-11-29T06:41:35.183Z,99.40
2022-11-29T06:42:35.267Z,111.10
2022-11-29T06:43:35.139Z,96.30
2022-11-29T06:44:35.137Z,114.60
2022-11-29T06:45:35.141Z,102.90
2022-11-29T06:46:35.135Z,100.70
2022-11-29T06:47:35.118Z,87.90
2022-11-29T06:48:35.091Z,103.10
2022-11-29T06:49:35.090Z,92.50
2022-11-29T06:50:35.244Z,95.10
2022-11-29T06:51:35.116Z,99.90
2022-11-29T06:52:35.035Z,98.20
2022-11-29T06:53:35.019Z,94.20
2022-11-29T06:54:35.046Z,89.10
2022-11-29T06:55:35.005Z,96.30
2022-11-29T06:56:34.988Z,93.30
2022-11-29T06:57:34.983Z,82.30
2022-11-29T06:58:36.363Z,94.60
2022-11-29T06:59:34.936Z,68.70
2022-11-29T07:00:34.976Z,81.70
2022-11-29T07:01:35.124Z,73.30
2022-11-29T07:02:34.906Z,73.70
2022-11-29T07:03:34.878Z,73.00
2022-11-29T07:04:34.873Z,61.00
2022-11-29T07:05:34.888Z,74.10
2022-11-29T07:06:34.867Z,86.50
2022-11-29T07:07:34.907Z,67.70
2022-11-29T07:08:34.840Z,81.20
2022-11-29T07:09:34.798Z,66.20
2022-11-29T07:10:34.793Z,66.60
2022-11-29T07:11:34.783Z,62.20
2022-11-29T07:12:34.785Z,74.40
2022-11-29T07:13:34.749Z,66.90
2022-11-29T07:14:34.739Z,66.70
2022-11-29T07:15:34.806Z,65.90
2022-11-29T07:16:34.801Z,62.70
2022-11-29T07:17:34.705Z,68.70
2022-11-29T07:18:34.700Z,59.50
2022-11-29T07:19:34.681Z,70.00
2022-11-29T07:20:34.671Z,68.80
2022-11-29T07:21:34.894Z,77.50
2022-11-29T07:22:34.643Z,67.50
2022-11-29T07:23:34.624Z,65.10
2022-11-29T07:24:34.608Z,57.50
2022-11-29T07:25:34.702Z,72.70
2022-11-29T07:26:34.634Z,69.10
2022-11-29T07:27:34.616Z,56.70
2022-11-29T07:28:34.547Z,64.20
2022-11-29T07:29:34.537Z,60.90
2022-11-29T07:30:34.531Z,61.20
2022-11-29T07:31:34.579Z,62.40
2022-11-29T07:32:34.505Z,60.70
2022-11-29T07:33:34.503Z,57.20
2022-11-29T07:34:34.480Z,65.40
2022-11-29T07:35:34.459Z,64.80
2022-11-29T07:36:34.523Z,56.50
2022-11-29T07:37:34.436Z,60.50
2022-11-29T07:38:34.428Z,59.90
2022-11-29T07:39:34.405Z,51.00
2022-11-29T07:40:37.598Z,55.80
2022-11-29T07:41:34.406Z,54.80
2022-11-29T07:42:34.370Z,52.00
2022-11-29T07:43:34.357Z,54.30
2022-11-29T07:44:34.348Z,48.00
2022-11-29T07:45:34.381Z,55.80
2022-11-29T07:46:34.389Z,52.40
2022-11-29T07:47:36.048Z,59.80
2022-11-29T07:48:34.289Z,58.10
2022-11-29T07:49:34.283Z,53.60
2022-11-29T07:50:34.271Z,48.90
2022-11-29T07:51:34.260Z,55.60
2022-11-29T07:52:34.258Z,57.80
2022-11-29T07:53:34.281Z,57.60
2022-11-29T07:54:34.215Z,53.10
2022-11-29T07:55:34.259Z,58.00
2022-11-29T07:56:34.198Z,54.20
2022-11-29T07:57:34.249Z,56.10
2022-11-29T07:58:34.212Z,56.60
2022-11-29T07:59:34.182Z,57.10
2022-11-29T08:00:35.009Z,48.20
2022-11-29T08:01:34.130Z,58.30
2022-11-29T08:02:34.134Z,65.20
2022-11-29T08:03:34.177Z,59.10
2022-11-29T08:04:34.086Z,57.70
2022-11-29T08:05:34.062Z,62.10
2022-11-29T08:06:34.053Z,64.30
2022-11-29T08:07:34.187Z,52.30
2022-11-29T08:08:36.643Z,54.10
2022-11-29T08:09:34.018Z,62.70
2022-11-29T08:10:34.005Z,57.70
2022-11-29T08:11:34.091Z,52.40
2022-11-29T08:12:33.983Z,58.60
2022-11-29T08:13:33.954Z,58.90
2022-11-29T08:14:33.989Z,59.60
2022-11-29T08:15:33.940Z,55.30
2022-11-29T08:16:33.953Z,57.00
2022-11-29T08:17:33.923Z,54.00
2022-11-29T08:18:33.920Z,61.10
2022-11-29T08:19:33.878Z,47.50
2022-11-29T08:20:33.891Z,60.00
2022-11-29T08:21:33.943Z,55.00
2022-11-29T08:22:33.899Z,57.00
2022-11-29T08:23:33.830Z,48.90
2022-11-29T08:24:33.805Z,45.00
2022-11-29T08:25:33.791Z,46.50
2022-11-29T08:26:33.792Z,43.60
2022-11-29T08:27:33.813Z,53.20
2022-11-29T08:28:33.763Z,51.40
2022-11-29T08:29:33.808Z,47.10
2022-11-29T08:30:33.749Z,54.60
2022-11-29T08:31:33.878Z,54.20
2022-11-29T08:32:33.757Z,46.90
2022-11-29T08:33:33.686Z,45.30
2022-11-29T08:34:33.708Z,46.90
2022-11-29T08:35:33.670Z,50.80
2022-11-29T08:36:33.660Z,44.30
2022-11-29T08:37:33.684Z,49.70
2022-11-29T08:38:33.640Z,44.30
2022-11-29T08:39:33.608Z,56.40
2022-11-29T08:40:33.635Z,49.20
2022-11-29T08:41:33.592Z,47.40
2022-11-29T08:42:33.585Z,49.80
2022-11-29T08:43:33.567Z,49.20
2022-11-29T08:44:33.553Z,43.70
2022-11-29T08:45:33.575Z,51.00
2022-11-29T08:46:33.509Z,48.80
2022-11-29T08:47:33.947Z,53.10
2022-11-29T08:48:33.485Z,49.10
2022-11-29T08:49:33.479Z,57.40
2022-11-29T08:50:33.469Z,52.10
2022-11-29T08:51:33.484Z,50.10
2022-11-29T08:52:33.443Z,48.50
2022-11-29T08:53:33.441Z,50.00
2022-11-29T08:54:33.414Z,51.90
2022-11-29T08:55:33.403Z,53.80
2022-11-29T08:57:16.584Z,46.90
2022-11-29T08:57:40.556Z,43.40
2022-11-29T08:58:33.369Z,44.70
2022-11-29T08:59:33.363Z,43.20
2022-11-29T09:00:33.340Z,44.80
2022-11-29T09:01:33.376Z,43.40
2022-11-29T09:02:33.356Z,47.20
2022-11-29T09:03:33.345Z,51.40
2022-11-29T09:04:33.272Z,47.90
2022-11-29T09:05:33.823Z,38.30
2022-11-29T09:06:33.256Z,40.90
2022-11-29T09:07:33.322Z,45.50
2022-11-29T09:08:33.240Z,43.40
2022-11-29T09:09:33.221Z,50.00
2022-11-29T09:10:33.246Z,47.40
2022-11-29T09:11:33.194Z,52.70
2022-11-29T09:12:33.215Z,51.70
2022-11-29T09:13:33.155Z,49.70
2022-11-29T09:14:33.144Z,41.80
2022-11-29T09:15:33.148Z,48.60
2022-11-29T09:16:33.191Z,51.80
2022-11-29T09:17:33.193Z,48.40
2022-11-29T09:18:33.099Z,52.70
2022-11-29T09:19:33.101Z,60.60
2022-11-29T09:20:33.174Z,49.90
2022-11-29T09:21:33.057Z,53.40
2022-11-29T09:22:33.050Z,49.50
2022-11-29T09:23:33.041Z,48.60
2022-11-29T09:24:33.007Z,50.10
2022-11-29T09:25:33.003Z,50.50
2022-11-29T09:26:32.999Z,51.60
2022-11-29T09:27:32.977Z,55.00
2022-11-29T09:28:32.971Z,48.50
2022-11-29T09:29:33.022Z,48.70
2022-11-29T09:30:32.956Z,63.20
2022-11-29T09:31:33.047Z,46.80
2022-11-29T09:32:32.898Z,52.70
2022-11-29T09:33:32.906Z,58.60
2022-11-29T09:34:32.871Z,57.30
2022-11-29T09:35:32.865Z,51.10
2022-11-29T09:36:32.846Z,60.50
2022-11-29T09:37:32.889Z,60.50
2022-11-29T09:38:32.878Z,62.00
2022-11-29T09:39:32.805Z,72.20
2022-11-29T09:40:32.798Z,61.20
2022-11-29T09:41:32.859Z,57.30
2022-11-29T09:42:32.765Z,61.20
2022-11-29T09:43:32.780Z,56.80
2022-11-29T09:44:32.754Z,49.10
2022-11-29T09:45:32.835Z,61.60
2022-11-29T09:46:32.767Z,59.70
2022-11-29T09:47:32.789Z,63.20
2022-11-29T09:48:32.700Z,66.50
2022-11-29T09:49:32.678Z,71.10
2022-11-29T09:50:32.692Z,64.90
2022-11-29T09:51:33.258Z,61.60
2022-11-29T09:52:32.637Z,62.30
2022-11-29T09:53:32.655Z,52.30
2022-11-29T09:54:32.604Z,55.70
2022-11-29T09:55:32.613Z,62.90
2022-11-29T09:56:32.609Z,59.20
2022-11-29T09:57:32.584Z,54.10
2022-11-29T09:58:32.596Z,55.60
2022-11-29T09:59:32.551Z,56.00
2022-11-29T10:00:32.537Z,58.80
2022-11-29T10:01:32.559Z,50.00
2022-11-29T10:02:32.675Z,56.40
2022-11-29T10:03:32.520Z,53.80
2022-11-29T10:04:32.478Z,50.40
2022-11-29T10:05:32.491Z,58.30
2022-11-29T10:06:32.458Z,68.70
2022-11-29T10:07:32.468Z,60.60
2022-11-29T10:08:32.449Z,62.20
2022-11-29T10:09:34.246Z,52.80
2022-11-29T10:10:32.417Z,66.50
2022-11-29T10:11:32.391Z,57.50
2022-11-29T10:12:32.364Z,67.50
2022-11-29T10:13:32.379Z,61.70
2022-11-29T10:14:32.359Z,67.00
2022-11-29T10:15:32.327Z,70.90
2022-11-29T10:16:32.362Z,56.80
2022-11-29T10:17:32.339Z,67.20
2022-11-29T10:18:32.288Z,56.60
2022-11-29T10:19:32.299Z,55.40
2022-11-29T10:20:35.368Z,56.90
2022-11-29T10:21:32.256Z,57.40
2022-11-29T10:22:32.261Z,52.80
2022-11-29T10:23:32.246Z,56.20
2022-11-29T10:24:32.227Z,60.40
2022-11-29T10:25:32.193Z,52.50
2022-11-29T10:26:35.388Z,56.30
2022-11-29T10:27:32.177Z,62.90
2022-11-29T10:28:32.158Z,53.40
2022-11-29T10:29:32.174Z,56.40
2022-11-29T10:30:32.170Z,66.10
2022-11-29T10:31:32.123Z,72.00
2022-11-29T10:32:32.113Z,65.90
2022-11-29T10:33:32.087Z,61.40
2022-11-29T10:34:32.085Z,60.80
2022-11-29T10:35:32.082Z,62.40
2022-11-29T10:36:32.069Z,59.70
2022-11-29T10:37:32.044Z,63.70
2022-11-29T10:38:32.356Z,71.70
2022-11-29T10:39:32.022Z,64.80
2022-11-29T10:40:31.996Z,65.20
2022-11-29T10:41:31.999Z,68.30
2022-11-29T10:42:31.978Z,60.90
2022-11-29T10:43:31.964Z,56.70
2022-11-29T10:44:32.032Z,56.30
2022-11-29T10:45:31.937Z,59.30
2022-11-29T10:46:31.990Z,59.20
2022-11-29T10:47:31.901Z,57.60
2022-11-29T10:48:31.892Z,63.50
2022-11-29T10:49:31.880Z,65.40
2022-11-29T10:50:31.879Z,65.60
2022-11-29T10:51:31.868Z,61.80
2022-11-29T10:52:31.887Z,68.60
2022-11-29T10:53:31.852Z,65.60
2022-11-29T10:54:31.826Z,62.00
2022-11-29T10:55:31.839Z,56.10
2022-11-29T10:56:31.794Z,63.80
2022-11-29T10:57:31.787Z,62.90
2022-11-29T10:58:31.805Z,71.50
2022-11-29T10:59:31.772Z,67.90
2022-11-29T11:00:31.749Z,64.80
2022-11-29T11:01:31.784Z,73.40
2022-11-29T11:02:31.700Z,57.40
2022-11-29T11:03:31.690Z,58.00
2022-11-29T11:04:31.678Z,61.40
2022-11-29T11:05:31.719Z,52.10
2022-11-29T11:06:31.674Z,47.30
2022-11-29T11:07:31.677Z,48.30
2022-11-29T11:08:31.620Z,42.40
2022-11-29T11:09:31.632Z,56.80
2022-11-29T11:10:31.611Z,60.30
2022-11-29T11:11:31.589Z,53.30
2022-11-29T11:12:31.572Z,52.40
2022-11-29T11:13:31.558Z,49.60
2022-11-29T11:14:31.569Z,53.30
2022-11-29T11:15:31.578Z,52.20
2022-11-29T11:16:36.808Z,47.90
2022-11-29T11:17:31.512Z,48.50
2022-11-29T11:18:31.489Z,56.40
2022-11-29T11:19:31.495Z,50.40
2022-11-29T11:20:31.453Z,46.70
2022-11-29T11:21:31.462Z,62.80
2022-11-29T11:22:31.445Z,47.80
2022-11-29T11:23:31.424Z,48.20
2022-11-29T11:24:31.465Z,62.30
2022-11-29T11:25:31.398Z,55.10
2022-11-29T11:26:31.396Z,55.50
2022-11-29T11:27:31.365Z,56.60
2022-11-29T11:28:31.366Z,62.90
2022-11-29T11:29:31.360Z,54.30
2022-11-29T11:30:31.380Z,54.50
2022-11-29T11:31:31.345Z,52.70
2022-11-29T11:32:31.341Z,53.00
2022-11-29T11:33:31.304Z,56.50
2022-11-29T11:34:31.286Z,50.40
2022-11-29T11:35:31.253Z,66.80
2022-11-29T11:36:31.252Z,50.60
2022-11-29T11:37:31.244Z,62.70
2022-11-29T11:38:31.222Z,67.80
2022-11-29T11:39:31.242Z,60.70
2022-11-29T11:40:31.273Z,69.60
2022-11-29T11:41:31.182Z,61.30
2022-11-29T11:42:30.197Z,61.70
2022-11-29T11:43:31.163Z,61.10
2022-11-29T11:44:47.785Z,63.60
2022-11-29T11:45:31.142Z,64.00
2022-11-29T11:46:31.114Z,66.00
2022-11-29T11:47:31.122Z,59.60
2022-11-29T11:48:31.151Z,71.60
2022-11-29T11:49:31.081Z,62.80
2022-11-29T11:50:31.077Z,61.10
2022-11-29T11:51:31.056Z,64.30
2022-11-29T11:52:32.953Z,59.80
2022-11-29T11:53:31.039Z,57.90
2022-11-29T11:54:31.015Z,61.10
2022-11-29T11:55:31.008Z,76.80
2022-11-29T11:56:31.077Z,64.00
2022-11-29T11:57:30.986Z,67.60
2022-11-29T11:58:31.000Z,60.10
2022-11-29T11:59:30.972Z,74.50
2022-11-29T12:01:01.918Z,69.10
2022-11-29T12:01:30.926Z,75.80
2022-11-29T12:02:31.032Z,59.00
2022-11-29T12:03:30.931Z,64.70
2022-11-29T12:04:30.905Z,57.60
2022-11-29T12:05:30.865Z,76.90
2022-11-29T12:06:30.863Z,69.10
2022-11-29T12:07:59.808Z,80.70
2022-11-29T12:08:30.922Z,72.50
2022-11-29T12:09:30.820Z,74.80
2022-11-29T12:10:30.827Z,65.80
2022-11-29T12:11:30.832Z,69.00
2022-11-29T12:12:30.767Z,58.70
2022-11-29T12:13:30.799Z,62.80
2022-11-29T12:14:30.745Z,68.10
2022-11-29T12:15:31.844Z,60.40
2022-11-29T12:16:30.731Z,66.90
2022-11-29T12:17:30.717Z,63.70
2022-11-29T12:18:30.684Z,60.70
2022-11-29T12:19:30.709Z,71.30
2022-11-29T12:20:30.680Z,52.50
2022-11-29T12:21:30.653Z,58.70
2022-11-29T12:22:30.652Z,59.20
2022-11-29T12:23:30.617Z,69.70
2022-11-29T12:24:30.612Z,52.80
2022-11-29T12:25:30.613Z,64.90
2022-11-29T12:27:30.569Z,61.20
2022-11-29T12:28:30.567Z,60.70
2022-11-29T12:29:30.556Z,65.70
2022-11-29T12:30:30.540Z,65.60
2022-11-29T12:31:30.570Z,69.40
2022-11-29T12:32:30.506Z,70.10
2022-11-29T12:33:30.526Z,58.10
2022-11-29T12:34:30.493Z,66.40
2022-11-29T12:35:30.496Z,62.10
2022-11-29T12:36:30.453Z,59.60
2022-11-29T12:37:30.445Z,62.50
2022-11-29T12:38:30.420Z,63.70
2022-11-29T12:39:30.407Z,70.00
2022-11-29T12:40:30.393Z,58.30
2022-11-29T12:41:30.408Z,67.00
2022-11-29T12:42:30.385Z,55.40
2022-11-29T12:43:30.354Z,58.90
2022-11-29T12:44:30.340Z,54.50
2022-11-29T12:45:30.358Z,64.10
2022-11-29T12:46:30.362Z,51.50
2022-11-29T12:47:37.683Z,59.80
2022-11-29T12:48:30.300Z,50.40
2022-11-29T12:49:30.291Z,58.60
2022-11-29T12:50:30.262Z,56.60
2022-11-29T12:51:30.268Z,47.90
2022-11-29T12:52:30.231Z,43.20
2022-11-29T12:53:30.244Z,44.20
2022-11-29T12:54:30.210Z,48.90
2022-11-29T12:55:30.266Z,51.00
2022-11-29T12:56:30.196Z,40.70
2022-11-29T12:57:30.172Z,45.80
2022-11-29T12:58:30.175Z,47.10
2022-11-29T12:59:30.177Z,45.30
2022-11-29T13:00:30.155Z,42.50
2022-11-29T13:01:30.223Z,50.30
2022-11-29T13:02:30.221Z,44.10
2022-11-29T13:03:30.107Z,47.30
2022-11-29T13:04:30.071Z,51.30
2022-11-29T13:05:30.142Z,48.50
2022-11-29T13:06:30.064Z,46.60
2022-11-29T13:07:31.046Z,51.80
2022-11-29T13:08:30.046Z,47.30
2022-11-29T13:09:30.015Z,49.60
2022-11-29T13:10:29.997Z,50.50
2022-11-29T13:11:29.999Z,48.90
2022-11-29T13:12:30.043Z,57.50
2022-11-29T13:13:29.977Z,57.80
2022-11-29T13:14:45.393Z,49.50
2022-11-29T13:15:29.941Z,53.50
2022-11-29T17:07:32.386Z,80.90
2022-11-29T17:08:33.370Z,80.90
2022-11-29T17:09:33.257Z,88.20
2022-11-29T17:10:33.277Z,82.30
2022-11-29T17:11:33.410Z,87.00
2022-11-29T17:12:33.231Z,89.70
2022-11-29T17:13:33.621Z,90.30
2022-11-29T17:14:33.381Z,96.60
2022-11-29T17:15:33.089Z,80.50
2022-11-29T17:16:33.182Z,93.50
2022-11-29T17:17:33.067Z,86.80
2022-11-29T17:18:33.044Z,90.00
2022-11-29T17:19:33.062Z,89.30
2022-11-29T17:20:33.017Z,86.30
2022-11-29T17:21:32.999Z,88.90
2022-11-29T17:22:33.017Z,78.00
2022-11-29T17:23:32.977Z,68.70
2022-11-29T17:24:32.986Z,79.60
2022-11-29T17:25:33.061Z,72.70
2022-11-29T17:26:32.930Z,77.10
2022-11-29T17:27:32.922Z,76.00
2022-11-29T17:28:32.918Z,74.50
2022-11-29T17:29:32.911Z,78.60
2022-11-29T17:30:32.884Z,83.20
2022-11-29T17:31:33.075Z,72.20
2022-11-29T17:32:32.856Z,80.80
2022-11-29T17:33:32.844Z,85.50
2022-11-29T17:34:32.900Z,74.30
2022-11-29T17:35:32.823Z,74.00
2022-11-29T17:36:32.795Z,74.40
2022-11-29T17:37:32.805Z,75.60
2022-11-29T17:38:32.792Z,74.60
2022-11-29T17:39:32.791Z,68.30
2022-11-29T17:40:32.769Z,62.10
2022-11-29T17:41:32.752Z,65.50
2022-11-29T17:42:32.725Z,68.60
2022-11-29T17:43:32.713Z,73.20
2022-11-29T17:44:50.942Z,76.40
2022-11-29T17:45:32.737Z,66.70
2022-11-29T17:46:32.673Z,71.00
2022-11-29T17:47:54.807Z,70.00
2022-11-29T17:48:33.755Z,63.60
2022-11-29T17:49:32.654Z,66.20
2022-11-29T17:50:32.629Z,66.10
2022-11-29T17:51:54.843Z,61.50
2022-11-29T17:52:32.599Z,61.30
2022-11-29T18:01:02.900Z,62.30
2022-11-29T18:28:22.787Z,75.00
2022-11-29T18:29:00.593Z,76.60
2022-11-29T18:30:00.582Z,70.30
2022-11-29T18:31:00.616Z,72.50
2022-11-29T18:32:00.572Z,81.40
2022-11-29T18:33:00.532Z,68.80
2022-11-29T18:34:00.515Z,68.50
2022-11-29T18:35:00.541Z,66.40
2022-11-29T18:36:00.486Z,73.30
2022-11-29T18:37:00.503Z,73.10
2022-11-29T18:38:15.279Z,73.40
2022-11-29T18:39:00.461Z,71.80
2022-11-29T18:40:00.430Z,80.10
2022-11-29T18:41:00.446Z,79.80
2022-11-29T18:42:00.429Z,73.10
2022-11-29T18:43:00.386Z,73.60
2022-11-29T18:44:00.412Z,80.40
2022-11-29T18:45:00.367Z,71.30
2022-11-29T18:46:00.457Z,81.70
2022-11-29T18:47:00.353Z,80.30
2022-11-29T18:48:00.374Z,72.40
2022-11-29T18:49:00.312Z,74.80
2022-11-29T18:50:00.316Z,82.10
2022-11-29T18:51:00.302Z,88.60
2022-11-29T18:52:00.279Z,69.50
2022-11-29T18:53:00.298Z,73.80
2022-11-29T18:54:00.300Z,70.60
2022-11-29T18:55:00.239Z,81.20
2022-11-29T18:56:00.228Z,78.70
2022-11-29T18:57:00.214Z,77.90
2022-11-29T18:58:00.186Z,92.00
2022-11-29T18:59:00.202Z,87.50
2022-11-29T19:00:00.186Z,80.20
2022-11-29T19:01:00.226Z,77.60
2022-11-29T19:02:00.160Z,75.20
2022-11-29T19:03:00.135Z,92.50
2022-11-29T19:04:00.114Z,91.00
2022-11-29T19:05:00.138Z,73.30
2022-11-29T19:06:00.104Z,74.90
2022-11-29T19:07:00.082Z,87.50
2022-11-29T19:08:00.192Z,80.50
2022-11-29T19:09:00.072Z,83.60
2022-11-29T19:10:00.032Z,90.60
2022-11-29T19:11:00.048Z,80.80
2022-11-29T19:12:00.022Z,90.60
2022-11-29T19:13:00.087Z,89.50
2022-11-29T19:14:00.014Z,89.10
2022-11-29T19:14:59.998Z,95.50
2022-11-29T19:15:59.993Z,108.00
2022-11-29T19:16:59.950Z,95.40
2022-11-29T19:17:59.916Z,93.40
2022-11-29T19:18:59.941Z,93.30
2022-11-29T19:19:59.897Z,107.60
2022-11-29T19:20:59.932Z,86.40
2022-11-29T19:21:59.877Z,87.60
2022-11-29T19:23:00.715Z,94.20
2022-11-29T19:23:59.849Z,86.90
2022-11-29T19:24:59.908Z,98.00
2022-11-29T19:25:59.863Z,82.90
2022-11-29T19:26:59.879Z,99.10
2022-11-29T19:27:59.925Z,92.60
2022-11-29T19:28:59.777Z,97.90
2022-11-29T19:29:59.769Z,96.60
2022-11-29T19:30:59.803Z,94.60
2022-11-29T19:31:59.755Z,94.20
2022-11-29T19:32:59.773Z,103.80
2022-11-29T19:33:59.713Z,94.80
2022-11-29T19:34:59.707Z,120.30
2022-11-29T19:35:59.676Z,103.90
2022-11-29T19:36:59.720Z,92.60
2022-11-29T19:37:59.652Z,98.30
2022-11-29T19:38:59.675Z,102.20
2022-11-29T19:39:59.630Z,100.90
2022-11-29T19:40:59.619Z,93.60
2022-11-29T19:41:59.622Z,101.80
2022-11-29T19:42:59.588Z,111.80
2022-11-29T19:43:59.598Z,110.20
2022-11-29T19:45:59.650Z,95.60
2022-11-29T19:46:59.582Z,100.90
2022-11-29T19:47:59.521Z,98.10
2022-11-29T19:48:59.514Z,108.50
2022-11-29T19:50:02.546Z,103.80
2022-11-29T19:50:59.490Z,103.20
2022-11-29T19:51:59.476Z,109.00
2022-11-29T19:52:59.460Z,113.80
2022-11-29T19:53:59.446Z,101.00
2022-11-29T19:54:59.435Z,119.70
2022-11-29T19:55:59.444Z,111.00
2022-11-29T19:56:59.465Z,110.50
2022-11-29T19:57:59.409Z,115.10
2022-11-29T19:58:59.388Z,109.20
2022-11-29T19:59:59.405Z,97.00
2022-11-29T20:00:59.396Z,106.70
2022-11-29T20:01:59.375Z,115.90
2022-11-29T20:02:59.351Z,96.20
2022-11-29T20:03:59.320Z,115.00
2022-11-29T20:04:59.299Z,116.50
2022-11-29T20:05:59.280Z,108.20
2022-11-29T20:06:59.289Z,116.70
2022-11-29T20:07:59.283Z,106.60
2022-11-29T20:08:59.237Z,122.20
2022-11-29T20:09:59.225Z,115.50
2022-11-29T20:10:59.233Z,111.80
2022-11-29T20:11:59.219Z,107.80
2022-11-29T20:12:59.242Z,106.40
2022-11-29T20:13:59.176Z,114.10
2022-11-29T20:15:00.930Z,107.20
2022-11-29T20:15:59.195Z,110.40
2022-11-29T20:16:59.163Z,118.40
2022-11-29T20:17:59.120Z,116.90
2022-11-29T20:18:59.118Z,116.40
2022-11-29T20:19:59.161Z,103.30
2022-11-29T20:20:59.082Z,115.30
2022-11-29T20:21:59.096Z,116.80
2022-11-29T20:22:59.076Z,97.10
2022-11-29T20:23:59.067Z,97.30
2022-11-29T20:24:59.117Z,110.40
2022-11-29T20:25:59.018Z,122.50
2022-11-29T20:26:59.088Z,117.00
2022-11-29T20:27:59.007Z,114.20
2022-11-29T20:28:59.016Z,116.10
2022-11-29T20:29:58.983Z,118.20
2022-11-29T20:30:59.050Z,107.30
2022-11-29T20:31:58.963Z,110.70
2022-11-29T20:32:58.931Z,107.20
2022-11-29T20:33:58.925Z,113.30
2022-11-29T20:34:58.938Z,104.40
2022-11-29T21:00:40.032Z,125.70
2022-11-29T21:01:39.479Z,126.60
2022-11-29T21:02:39.444Z,122.80
2022-11-29T21:03:39.481Z,122.80
2022-11-29T21:04:39.451Z,126.50
2022-11-29T21:05:39.386Z,125.30
2022-11-29T21:06:39.413Z,124.10
2022-11-29T21:07:39.449Z,127.40
2022-11-29T21:08:39.391Z,118.10
2022-11-29T21:09:39.345Z,121.20
2022-11-29T21:10:39.412Z,129.00
2022-11-29T21:11:39.351Z,123.20
2022-11-29T21:12:39.271Z,145.40
2022-11-29T21:13:39.292Z,127.80
2022-11-29T21:14:39.283Z,127.40
2022-11-29T21:15:39.279Z,126.20
2022-11-29T21:16:39.238Z,127.00
2022-11-29T21:17:39.247Z,123.70
2022-11-29T21:18:39.291Z,125.20
2022-11-29T21:19:39.175Z,119.00
2022-11-29T21:55:59.408Z,144.60
2022-11-29T21:56:37.826Z,148.90
2022-11-29T21:57:37.848Z,142.90
2022-11-29T21:58:37.869Z,149.20
2022-11-29T21:59:37.872Z,146.40
2022-11-29T22:00:37.983Z,166.40
2022-11-29T22:01:37.967Z,161.00
2022-11-29T22:02:37.986Z,160.40
2022-11-29T22:03:37.815Z,159.60
2022-11-29T22:04:37.756Z,174.90
2022-11-29T22:05:37.737Z,166.10
2022-11-29T22:06:37.709Z,163.00
2022-11-29T22:07:37.757Z,164.90
2022-11-29T22:08:37.718Z,172.30
2022-11-29T22:09:37.692Z,160.50
2022-11-29T22:10:37.670Z,176.70
2022-11-29T22:11:37.642Z,165.80
2022-11-29T22:12:37.631Z,168.90
2022-11-29T22:13:37.639Z,170.40
2022-11-29T22:14:37.592Z,182.60
2022-11-29T22:15:37.603Z,178.90
2022-11-29T22:16:37.595Z,168.90
2022-11-29T22:17:37.601Z,190.20
2022-11-29T22:18:36.540Z,178.40
2022-11-29T22:19:37.537Z,177.00
2022-11-29T22:20:37.533Z,176.10
2022-11-29T22:21:37.527Z,174.50
2022-11-29T22:22:37.495Z,189.50
2022-11-29T22:23:37.496Z,193.60
2022-11-29T22:24:37.462Z,183.50
2022-11-29T22:25:37.431Z,182.60
2022-11-29T22:26:37.463Z,187.90
2022-11-29T22:27:37.441Z,197.60
2022-11-29T22:28:37.400Z,203.10
2022-11-29T22:29:37.433Z,188.80
2022-11-29T22:30:37.388Z,216.50
2022-11-29T22:31:37.418Z,214.30
2022-11-29T22:32:37.342Z,219.20
2022-11-29T22:33:37.385Z,206.90
2022-11-29T22:34:37.319Z,191.10
2022-11-29T22:35:37.322Z,209.90
2022-11-29T22:36:37.331Z,207.30
2022-11-29T22:37:37.285Z,183.90
2022-11-29T22:38:37.273Z,194.40
2022-11-29T22:39:37.292Z,205.90
2022-11-29T22:40:37.306Z,203.20
2022-11-29T22:41:37.257Z,203.20
2022-11-29T22:42:37.234Z,208.40
2022-11-29T22:43:37.282Z,204.50
2022-11-29T22:44:37.180Z,217.70
2022-11-29T22:45:37.160Z,218.00
2022-11-29T22:46:37.347Z,197.70
2022-11-29T22:47:37.130Z,210.60
2022-11-29T22:48:39.110Z,209.20
2022-11-29T22:49:37.106Z,214.80
2022-11-29T22:50:37.158Z,190.60
2022-11-29T22:51:37.117Z,196.50
2022-11-29T22:52:37.106Z,180.00
2022-11-29T22:53:37.128Z,162.10
2022-11-29T22:54:37.048Z,173.80
2022-11-29T23:12:38.424Z,105.40
2022-11-29T23:13:37.437Z,103.80
2022-11-29T23:14:37.399Z,96.70
2022-11-29T23:15:37.389Z,105.10
2022-11-29T23:16:37.476Z,97.00
2022-11-29T23:17:37.382Z,101.90
2022-11-29T23:18:37.414Z,104.30
2022-11-29T23:19:37.338Z,102.80
2022-11-29T23:20:37.375Z,104.90
2022-11-29T23:21:37.319Z,109.50
2022-11-29T23:22:37.298Z,97.40
2022-11-29T23:23:37.317Z,106.50
2022-11-29T23:24:37.309Z,113.30
2022-11-29T23:55:26.940Z,123.30
2022-11-29T23:56:27.917Z,116.60
2022-11-29T23:57:27.918Z,114.60
2022-11-29T23:58:27.921Z,107.30
2022-11-29T23:59:27.901Z,119.90
